This is the latest recevied weather packets stored in our database for station/object N4PWG. If no packets are shown the sender has not sent any weather packets the latest 1 day(s).
| Time | Temp. | Humidity | Pressure | Rain* | Wind** | Luminosity | Snow |
|---|---|---|---|---|---|---|---|
| 1778096990 | 13.33° C | 91% | 1031.9 hPa | 1.78 mm | - | 89 W/m² | - |
| 1778096082 | 13.89° C | 85% | 1033 hPa | 0 mm | - | 45 W/m² | - |
| 1778094262 | 13.33° C | 85% | 1031.9 hPa | 0 mm | - | 52 W/m² | - |
| 1778093959 | 13.89° C | 83% | 1032 hPa | 0 mm | - | 50 W/m² | - |
| 1778093656 | 13.89° C | 84% | 1032.1 hPa | 0 mm | - | 63 W/m² | - |
| 1778093050 | 14.44° C | 81% | 1031.9 hPa | 0 mm | - | 166 W/m² | - |
| 1778092140 | 13.89° C | 82% | 1031.9 hPa | 0 mm | - | 157 W/m² | - |
| 1778091837 | 13.89° C | 84% | 1032.2 hPa | 0 mm | - | 136 W/m² | - |
| 1778091534 | 13.89° C | 83% | 1032.2 hPa | 0 mm | - | 86 W/m² | - |
| 1778091232 | 13.89° C | 84% | 1032.2 hPa | 0 mm | - | 115 W/m² | - |
| 1778090929 | 13.89° C | 84% | 1032.5 hPa | 0 mm | - | 86 W/m² | - |
| 1778090625 | 13.89° C | 84% | 1032.3 hPa | 0 mm | - | 113 W/m² | - |
| 1778090018 | 13.89° C | 85% | 1031.9 hPa | 0 mm | - | 195 W/m² | - |
| 1778089413 | 13.89° C | 83% | 1031.8 hPa | 0 mm | - | 214 W/m² | - |
| 1778088504 | 13.89° C | 84% | 1032.5 hPa | 0 mm | - | 219 W/m² | - |
| 1778087293 | 13.89° C | 85% | 1032.2 hPa | 0 mm | - | 325 W/m² | - |
| 1778086688 | 13.33° C | 86% | 1032.2 hPa | 0 mm | - | 340 W/m² | - |
| 1778085170 | 12.78° C | 85% | 1031.9 hPa | 0 mm | - | 215 W/m² | - |
| 1778084256 | 12.78° C | 87% | 1031.8 hPa | 0 mm | - | 214 W/m² | - |
| 1778080998 | 11.67° C | 89% | 1032.3 hPa | 0 mm | - | 196 W/m² | - |
| 1778078574 | 11.11° C | 90% | 1032.3 hPa | 0 mm | - | 219 W/m² | - |
| 1778078272 | 11.11° C | 89% | 1032 hPa | 0 mm | - | 220 W/m² | - |
| 1778077365 | 10.56° C | 90% | 1031.8 hPa | 0 mm | - | 209 W/m² | - |
| 1778077063 | 10.56° C | 90% | 1031.4 hPa | 0 mm | - | 146 W/m² | - |
| 1778076761 | 10.56° C | 91% | 1031.4 hPa | 0 mm | - | 132 W/m² | - |
* Rain latest hour (hover to see other rain measurements)
** Current wind speed in m/s (hover to see current wind gust speed)